Terminal Aerodrome Forecast
Issued by NWS Charleston, WV

Home | Current Version | Previous Version | Text Only | Print | Product List | Glossary On
Versions: 1 2 3 4 5 6 7 8 9 10 11 12 13 14 15 16 17 18 19 20 21 22 23 24 25
000
FTUS41 KRLX 230540
TAFBKW
TAF
KBKW 230540Z 2306/2406 14005KT P6SM BKN060
     FM231800 18009G16KT P6SM SCT030
     FM232000 22009G15KT P6SM SCT035
     FM232200 23008KT P6SM BKN250
     FM240500 22004KT P6SM BKN250=

USA.gov is the U.S. government's official web portal to all federal, state and local government web resources and services.